createdAt,value
2023-02-17T00:02:13.423Z,17.93
2023-02-17T00:04:40.328Z,17.96
2023-02-17T00:07:07.208Z,17.96
2023-02-17T00:09:34.141Z,17.93
2023-02-17T00:12:01.088Z,17.93
2023-02-17T00:14:27.973Z,17.94
2023-02-17T00:16:54.905Z,17.93
2023-02-17T00:19:25.358Z,17.94
2023-02-17T00:21:55.948Z,17.95
2023-02-17T00:24:23.577Z,17.94
2023-02-17T00:26:50.573Z,17.94
2023-02-17T00:29:17.714Z,17.93
2023-02-17T00:31:44.970Z,17.93
2023-02-17T00:34:12.449Z,17.91
2023-02-17T00:36:39.994Z,17.91
2023-02-17T00:39:07.323Z,17.91
2023-02-17T00:41:34.453Z,17.91
2023-02-17T00:44:01.247Z,17.91
2023-02-17T00:46:28.299Z,17.91
2023-02-17T00:48:55.329Z,17.92
2023-02-17T00:51:22.324Z,17.94
2023-02-17T00:53:49.567Z,17.90
2023-02-17T00:56:16.526Z,17.91
2023-02-17T00:58:43.724Z,17.93
2023-02-17T01:01:11.683Z,17.92
2023-02-17T01:03:38.547Z,17.94
2023-02-17T01:06:07.648Z,17.93
2023-02-17T01:08:34.760Z,17.91
2023-02-17T01:11:01.831Z,17.91
2023-02-17T01:13:28.682Z,17.90
2023-02-17T01:15:55.759Z,17.91
2023-02-17T01:18:23.477Z,17.92
2023-02-17T01:20:50.313Z,17.92
2023-02-17T01:23:17.292Z,17.89
2023-02-17T01:25:45.439Z,17.90
2023-02-17T01:28:15.523Z,17.89
2023-02-17T01:30:42.443Z,17.90
2023-02-17T01:33:09.338Z,17.90
2023-02-17T01:35:36.203Z,17.89
2023-02-17T01:38:03.065Z,17.88
2023-02-17T01:40:30.532Z,17.90
2023-02-17T01:42:57.381Z,17.89
2023-02-17T01:45:24.525Z,17.88
2023-02-17T01:47:54.389Z,17.88
2023-02-17T01:50:22.802Z,17.89
2023-02-17T01:52:50.079Z,17.88
2023-02-17T01:55:18.915Z,17.88
2023-02-17T01:57:47.135Z,17.88
2023-02-17T02:00:14.737Z,17.89
2023-02-17T02:02:44.511Z,17.87
2023-02-17T02:05:12.179Z,17.88
2023-02-17T02:07:40.862Z,17.89
2023-02-17T02:10:08.758Z,17.88
2023-02-17T02:12:37.707Z,17.86
2023-02-17T02:15:08.109Z,17.85
2023-02-17T02:17:45.129Z,17.85
2023-02-17T02:20:22.668Z,17.83
2023-02-17T02:22:52.579Z,17.85
2023-02-17T02:25:22.427Z,17.88
2023-02-17T02:27:49.607Z,17.84
2023-02-17T02:30:19.583Z,17.87
2023-02-17T02:32:49.671Z,17.85
2023-02-17T02:35:17.846Z,17.84
2023-02-17T02:37:47.750Z,17.83
2023-02-17T02:40:15.916Z,17.85
2023-02-17T02:42:44.047Z,17.86
2023-02-17T02:45:11.579Z,17.81
2023-02-17T02:47:41.463Z,17.88
2023-02-17T02:50:10.427Z,17.84
2023-02-17T02:52:37.589Z,17.83
2023-02-17T02:55:10.675Z,17.82
2023-02-17T02:57:40.597Z,17.81
2023-02-17T03:00:16.302Z,17.81
2023-02-17T03:02:46.250Z,17.80
2023-02-17T03:05:16.663Z,17.80
2023-02-17T03:07:43.833Z,17.81
2023-02-17T03:10:10.844Z,17.82
2023-02-17T03:12:40.177Z,17.81
2023-02-17T03:15:14.593Z,17.83
2023-02-17T03:17:41.409Z,17.81
2023-02-17T03:20:08.811Z,17.83
2023-02-17T03:22:37.166Z,17.83
2023-02-17T03:25:04.472Z,17.83
2023-02-17T03:27:31.294Z,17.82
2023-02-17T03:29:58.155Z,17.83
2023-02-17T03:32:25.195Z,17.83
2023-02-17T03:34:52.104Z,17.82
2023-02-17T03:37:19.606Z,17.85
2023-02-17T03:39:46.622Z,17.82
2023-02-17T03:42:13.413Z,17.82
2023-02-17T03:44:40.204Z,17.82
2023-02-17T03:47:07.601Z,17.82
2023-02-17T03:49:34.506Z,17.84
2023-02-17T03:52:01.437Z,17.81
2023-02-17T03:54:28.337Z,17.81
2023-02-17T03:56:55.217Z,17.81
2023-02-17T03:59:22.108Z,17.81
2023-02-17T04:01:49.023Z,17.82
2023-02-17T04:04:15.961Z,17.81
2023-02-17T04:06:42.823Z,17.82
2023-02-17T04:09:09.678Z,17.80
2023-02-17T04:11:36.547Z,17.81
2023-02-17T04:14:03.556Z,17.84
2023-02-17T04:16:30.444Z,17.81
2023-02-17T04:18:57.320Z,17.80
2023-02-17T04:21:24.310Z,17.80
2023-02-17T04:23:51.243Z,17.79
2023-02-17T04:26:18.067Z,17.76
2023-02-17T04:28:44.898Z,17.80
2023-02-17T04:31:11.813Z,17.79
2023-02-17T04:33:38.739Z,17.80
2023-02-17T04:36:06.241Z,17.76
2023-02-17T04:38:33.564Z,17.79
2023-02-17T04:41:00.796Z,17.80
2023-02-17T04:43:28.344Z,17.77
2023-02-17T04:45:55.579Z,17.80
2023-02-17T04:48:22.855Z,17.78
2023-02-17T04:50:49.647Z,17.78
2023-02-17T04:53:16.505Z,17.74
2023-02-17T04:55:43.369Z,17.74
2023-02-17T04:58:10.542Z,17.76
2023-02-17T05:00:37.678Z,17.76
2023-02-17T05:03:04.875Z,17.74
2023-02-17T05:05:31.687Z,17.77
2023-02-17T05:07:58.571Z,17.77
2023-02-17T05:10:25.432Z,17.77
2023-02-17T05:12:52.864Z,17.75
2023-02-17T05:15:19.828Z,17.76
2023-02-17T05:17:46.686Z,17.74
2023-02-17T05:20:13.886Z,17.73
2023-02-17T05:22:40.769Z,17.73
2023-02-17T05:25:07.736Z,17.71
2023-02-17T05:27:37.478Z,17.71
2023-02-17T05:30:04.869Z,17.70
2023-02-17T05:32:31.742Z,17.73
2023-02-17T05:34:58.650Z,17.71
2023-02-17T05:37:25.485Z,17.69
2023-02-17T05:39:52.365Z,17.70
2023-02-17T05:42:19.201Z,17.69
2023-02-17T05:44:46.091Z,17.66
2023-02-17T05:47:12.966Z,17.65
2023-02-17T05:49:39.825Z,17.67
2023-02-17T05:52:06.683Z,17.65
2023-02-17T05:54:33.549Z,17.68
2023-02-17T05:57:00.533Z,17.67
2023-02-17T05:59:27.465Z,17.68
2023-02-17T06:01:54.361Z,17.65
2023-02-17T06:04:21.241Z,17.66
2023-02-17T06:06:48.077Z,17.63
2023-02-17T06:09:14.936Z,17.61
2023-02-17T06:11:41.772Z,17.65
2023-02-17T06:14:08.586Z,17.63
2023-02-17T06:16:35.480Z,17.62
2023-02-17T06:19:02.851Z,17.61
2023-02-17T06:21:29.644Z,17.60
2023-02-17T06:23:56.590Z,17.61
2023-02-17T06:26:23.498Z,17.60
2023-02-17T06:28:50.375Z,17.58
2023-02-17T06:31:17.274Z,17.57
2023-02-17T06:33:44.449Z,17.58
2023-02-17T06:36:11.326Z,17.58
2023-02-17T06:38:38.147Z,17.57
2023-02-17T06:41:05.124Z,17.56
2023-02-17T06:43:32.021Z,17.59
2023-02-17T06:45:58.860Z,17.57
2023-02-17T06:48:25.822Z,17.57
2023-02-17T06:50:52.685Z,17.55
2023-02-17T06:53:19.755Z,17.56
2023-02-17T06:55:46.617Z,17.57
2023-02-17T06:58:13.528Z,17.57
2023-02-17T07:00:40.409Z,17.55
2023-02-17T07:03:07.342Z,17.57
2023-02-17T07:05:36.598Z,17.58
2023-02-17T07:08:04.393Z,17.58
2023-02-17T07:10:31.724Z,17.60
2023-02-17T07:12:58.658Z,17.63
2023-02-17T07:15:25.519Z,17.66
2023-02-17T07:17:52.430Z,17.73
2023-02-17T07:20:19.440Z,17.78
2023-02-17T07:22:46.313Z,17.82
2023-02-17T07:25:13.485Z,17.89
2023-02-17T07:27:40.391Z,17.94
2023-02-17T07:30:07.759Z,18.02
2023-02-17T07:32:35.836Z,18.09
2023-02-17T07:35:02.819Z,18.14
2023-02-17T07:37:29.681Z,18.21
2023-02-17T07:39:57.454Z,18.27
2023-02-17T07:42:24.549Z,18.32
2023-02-17T07:44:51.435Z,18.39
2023-02-17T07:47:18.368Z,18.44
2023-02-17T07:49:45.263Z,18.50
2023-02-17T07:52:12.223Z,18.56
2023-02-17T07:54:39.037Z,18.61
2023-02-17T07:57:05.913Z,18.66
2023-02-17T07:59:32.835Z,18.72
2023-02-17T08:01:59.710Z,18.78
2023-02-17T08:04:26.802Z,18.85
2023-02-17T08:06:53.761Z,18.89
2023-02-17T08:09:23.665Z,18.95
2023-02-17T08:11:53.622Z,19.03
2023-02-17T08:14:22.772Z,19.11
2023-02-17T08:16:49.646Z,19.19
2023-02-17T08:19:16.773Z,19.22
2023-02-17T08:21:43.784Z,19.35
2023-02-17T08:24:11.165Z,19.35
2023-02-17T08:26:38.455Z,19.40
2023-02-17T08:29:05.336Z,19.43
2023-02-17T08:31:33.738Z,19.47
2023-02-17T08:34:01.546Z,19.49
2023-02-17T08:36:29.283Z,19.53
2023-02-17T08:38:56.446Z,19.60
2023-02-17T08:41:23.714Z,19.61
2023-02-17T08:43:51.371Z,19.65
2023-02-17T08:46:19.660Z,19.69
2023-02-17T08:48:47.141Z,19.74
2023-02-17T08:51:15.391Z,19.76
2023-02-17T08:53:42.840Z,19.80
2023-02-17T08:56:10.347Z,19.82
2023-02-17T08:58:37.575Z,19.84
2023-02-17T09:01:04.752Z,19.85
2023-02-17T09:03:34.198Z,19.88
2023-02-17T09:06:01.880Z,19.92
2023-02-17T09:08:28.764Z,19.95
2023-02-17T09:10:56.089Z,19.98
2023-02-17T09:13:23.028Z,20.02
2023-02-17T09:15:50.083Z,20.06
2023-02-17T09:18:17.076Z,20.07
2023-02-17T09:20:44.045Z,20.12
2023-02-17T09:23:11.188Z,20.15
2023-02-17T09:25:38.203Z,20.17
2023-02-17T09:28:05.473Z,20.18
2023-02-17T09:30:32.858Z,20.20
2023-02-17T09:33:00.125Z,20.21
2023-02-17T09:35:27.451Z,20.23
2023-02-17T09:37:54.734Z,20.25
2023-02-17T09:40:24.472Z,20.26
2023-02-17T09:42:51.659Z,20.27
2023-02-17T09:45:21.345Z,20.27
2023-02-17T09:47:50.067Z,20.28
2023-02-17T09:50:20.138Z,20.29
2023-02-17T09:52:49.467Z,20.26
2023-02-17T09:55:20.769Z,20.28
2023-02-17T09:57:52.409Z,20.30
2023-02-17T10:00:27.396Z,20.29
2023-02-17T10:02:56.344Z,20.27
2023-02-17T10:05:24.581Z,20.27
2023-02-17T10:07:53.562Z,20.27
2023-02-17T10:10:25.031Z,20.26
2023-02-17T10:12:55.901Z,20.25
2023-02-17T10:15:25.434Z,20.25
2023-02-17T10:17:53.781Z,20.21
2023-02-17T10:20:23.778Z,20.25
2023-02-17T10:22:53.363Z,20.25
2023-02-17T10:25:23.958Z,20.23
2023-02-17T10:27:52.340Z,20.18
2023-02-17T10:30:27.084Z,20.20
2023-02-17T10:33:01.481Z,20.18
2023-02-17T10:35:31.397Z,20.16
2023-02-17T10:38:01.356Z,20.11
2023-02-17T10:40:29.911Z,20.11
2023-02-17T10:42:59.199Z,20.10
2023-02-17T10:45:27.469Z,20.10
2023-02-17T10:47:58.319Z,20.07
2023-02-17T10:50:25.877Z,20.03
2023-02-17T10:52:53.842Z,20.07
2023-02-17T10:55:25.049Z,20.04
2023-02-17T10:57:54.967Z,20.00
2023-02-17T11:00:23.075Z,20.04
2023-02-17T11:02:52.541Z,20.00
2023-02-17T11:05:22.159Z,20.00
2023-02-17T11:07:52.561Z,20.01
2023-02-17T11:10:20.851Z,20.00
2023-02-17T11:12:50.153Z,19.95
2023-02-17T11:15:19.459Z,19.94
2023-02-17T11:17:47.049Z,19.97
2023-02-17T11:20:14.534Z,19.91
2023-02-17T11:22:44.881Z,19.91
2023-02-17T11:25:14.780Z,19.89
2023-02-17T11:27:41.743Z,19.87
2023-02-17T11:30:10.099Z,19.84
2023-02-17T11:32:37.059Z,19.82
2023-02-17T11:35:06.736Z,19.76
2023-02-17T11:37:38.263Z,19.78
2023-02-17T11:40:15.725Z,19.64
2023-02-17T11:42:42.630Z,19.66
2023-02-17T11:45:12.564Z,19.59
2023-02-17T11:47:44.712Z,19.57
2023-02-17T11:50:11.949Z,19.53
2023-02-17T11:52:47.450Z,19.54
2023-02-17T11:55:17.428Z,19.51
2023-02-17T11:57:53.314Z,19.49
2023-02-17T12:00:20.725Z,19.47
2023-02-17T12:02:48.033Z,19.45
2023-02-17T12:05:22.450Z,19.44
2023-02-17T12:07:56.510Z,19.41
2023-02-17T12:10:27.180Z,19.42
2023-02-17T12:12:57.127Z,19.41
2023-02-17T12:15:27.309Z,19.44
2023-02-17T12:17:57.401Z,19.40
2023-02-17T12:20:33.259Z,19.36
2023-02-17T12:23:06.826Z,19.37
2023-02-17T12:25:37.878Z,19.35
2023-02-17T12:28:07.797Z,19.37
2023-02-17T12:30:37.920Z,19.38
2023-02-17T12:33:05.325Z,19.35
2023-02-17T12:35:41.419Z,19.30
2023-02-17T12:38:12.206Z,19.30
2023-02-17T12:40:42.230Z,19.29
2023-02-17T12:43:19.759Z,19.33
2023-02-17T12:45:48.692Z,19.30
2023-02-17T12:48:22.917Z,19.29
2023-02-17T12:50:52.861Z,19.31
2023-02-17T12:53:26.147Z,19.28
2023-02-17T12:55:57.870Z,19.27
2023-02-17T12:58:27.158Z,19.24
2023-02-17T13:00:59.881Z,19.24
2023-02-17T13:03:29.578Z,19.27
2023-02-17T13:05:59.672Z,19.23
2023-02-17T13:08:33.904Z,19.23
2023-02-17T13:11:02.624Z,19.24
2023-02-17T13:13:31.104Z,19.23
2023-02-17T13:16:01.435Z,19.23
2023-02-17T13:18:29.672Z,19.22
2023-02-17T13:21:00.147Z,19.23
2023-02-17T13:23:28.823Z,19.19
2023-02-17T13:25:58.847Z,19.19
2023-02-17T13:28:28.802Z,19.19
2023-02-17T13:30:56.830Z,19.15
2023-02-17T13:33:24.394Z,19.15
2023-02-17T13:35:51.587Z,19.16
2023-02-17T13:38:21.604Z,19.14
2023-02-17T13:40:51.692Z,19.13
2023-02-17T13:43:20.154Z,19.10
2023-02-17T13:45:50.226Z,19.09
2023-02-17T13:48:18.549Z,19.14
2023-02-17T13:50:48.105Z,19.16
2023-02-17T13:53:21.103Z,19.21
2023-02-17T13:55:48.230Z,19.28
2023-02-17T13:58:15.184Z,19.34
2023-02-17T14:00:43.916Z,19.41
2023-02-17T14:03:18.540Z,19.48
2023-02-17T14:05:46.543Z,19.54
2023-02-17T14:08:16.536Z,19.60
2023-02-17T14:10:43.786Z,19.68
2023-02-17T14:13:11.737Z,19.73
2023-02-17T14:15:49.224Z,19.78
2023-02-17T14:18:17.139Z,19.85
2023-02-17T14:20:44.124Z,19.85
2023-02-17T14:23:12.440Z,19.91
2023-02-17T14:25:40.967Z,19.94
2023-02-17T14:28:10.917Z,19.97
2023-02-17T14:30:39.583Z,20.07
2023-02-17T14:33:07.115Z,20.13
2023-02-17T14:35:35.531Z,20.13
2023-02-17T14:38:05.563Z,20.17
2023-02-17T14:40:32.507Z,20.20
2023-02-17T14:42:59.529Z,20.21
2023-02-17T14:45:26.543Z,20.23
2023-02-17T14:47:53.514Z,20.24
2023-02-17T14:50:20.487Z,20.26
2023-02-17T14:52:48.368Z,20.27
2023-02-17T14:55:18.539Z,20.29
2023-02-17T14:57:45.657Z,20.29
2023-02-17T15:00:14.491Z,20.30
2023-02-17T15:02:41.543Z,20.31
2023-02-17T15:05:08.575Z,20.27
2023-02-17T15:07:35.789Z,20.30
2023-02-17T15:10:02.892Z,20.30
2023-02-17T15:12:29.900Z,20.30
2023-02-17T15:14:57.086Z,20.31
2023-02-17T15:17:24.099Z,20.27
2023-02-17T15:19:51.135Z,20.27
2023-02-17T15:22:18.154Z,20.27
2023-02-17T15:24:45.214Z,20.26
2023-02-17T15:27:13.486Z,20.24
2023-02-17T15:29:40.427Z,20.21
2023-02-17T15:32:12.968Z,20.22
2023-02-17T15:34:40.478Z,20.21
2023-02-17T15:37:07.396Z,20.22
2023-02-17T15:39:34.344Z,20.21
2023-02-17T15:42:04.803Z,20.21
2023-02-17T15:44:38.515Z,20.18
2023-02-17T15:47:05.938Z,20.15
2023-02-17T15:49:32.864Z,20.18
2023-02-17T15:51:59.780Z,20.17
2023-02-17T15:54:26.684Z,20.13
2023-02-17T15:56:53.823Z,20.12
2023-02-17T15:59:23.821Z,20.14
2023-02-17T16:01:52.063Z,20.12
2023-02-17T16:04:19.229Z,20.11
2023-02-17T16:06:46.124Z,20.13
2023-02-17T16:09:13.143Z,20.14
2023-02-17T16:11:46.431Z,20.14
2023-02-17T16:14:21.445Z,20.14
2023-02-17T16:16:48.553Z,20.12
2023-02-17T16:19:15.491Z,20.12
2023-02-17T16:21:42.375Z,20.11
2023-02-17T16:24:09.294Z,20.10
2023-02-17T16:26:37.454Z,20.09
2023-02-17T16:29:11.361Z,20.08
2023-02-17T16:31:38.430Z,20.05
2023-02-17T16:34:05.372Z,20.02
2023-02-17T16:36:34.543Z,20.02
2023-02-17T16:39:04.327Z,19.99
2023-02-17T16:41:31.244Z,19.98
2023-02-17T16:43:58.145Z,19.94
2023-02-17T16:46:29.917Z,19.95
2023-02-17T16:48:58.054Z,19.95
2023-02-17T16:51:25.178Z,19.91
2023-02-17T16:53:52.140Z,19.89
2023-02-17T16:56:22.104Z,19.90
2023-02-17T16:58:49.089Z,19.90
2023-02-17T17:01:16.005Z,19.87
2023-02-17T17:03:43.357Z,19.88
2023-02-17T17:06:13.363Z,19.84
2023-02-17T17:08:40.324Z,19.79
2023-02-17T17:11:07.244Z,19.80
2023-02-17T17:13:34.177Z,19.77
2023-02-17T17:16:01.163Z,19.75
2023-02-17T17:18:28.066Z,19.75
2023-02-17T17:20:54.961Z,19.74
2023-02-17T17:23:22.008Z,19.71
2023-02-17T17:25:48.934Z,19.71
2023-02-17T17:28:18.100Z,19.68
2023-02-17T17:30:45.765Z,19.70
2023-02-17T17:33:12.614Z,19.66
2023-02-17T17:35:39.591Z,19.65
2023-02-17T17:38:06.640Z,19.64
2023-02-17T17:40:48.790Z,19.64
2023-02-17T17:43:16.665Z,19.63
2023-02-17T17:45:43.713Z,19.61
2023-02-17T17:48:13.462Z,19.58
2023-02-17T17:50:40.755Z,19.58
2023-02-17T17:53:07.723Z,19.58
2023-02-17T17:55:34.672Z,19.55
2023-02-17T17:58:01.671Z,19.53
2023-02-17T18:00:28.969Z,19.53
2023-02-17T18:02:56.099Z,19.52
2023-02-17T18:05:23.096Z,19.49
2023-02-17T18:07:50.863Z,19.49
2023-02-17T18:10:18.124Z,19.47
2023-02-17T18:12:45.978Z,19.48
2023-02-17T18:15:13.100Z,19.46
2023-02-17T18:17:42.427Z,19.44
2023-02-17T18:20:10.823Z,19.45
2023-02-17T18:22:38.024Z,19.44
2023-02-17T18:25:05.318Z,19.44
2023-02-17T18:27:35.276Z,19.40
2023-02-17T18:30:02.327Z,19.38
2023-02-17T18:32:29.634Z,19.40
2023-02-17T18:34:58.699Z,19.36
2023-02-17T18:37:26.267Z,19.35
2023-02-17T18:39:53.304Z,19.34
2023-02-17T18:42:20.292Z,19.34
2023-02-17T18:44:47.316Z,19.33
2023-02-17T18:47:14.202Z,19.32
2023-02-17T18:49:41.469Z,19.29
2023-02-17T18:52:08.404Z,19.30
2023-02-17T18:54:35.503Z,19.27
2023-02-17T18:57:02.680Z,19.28
2023-02-17T18:59:29.689Z,19.24
2023-02-17T19:01:56.708Z,19.23
2023-02-17T19:04:23.763Z,19.23
2023-02-17T19:06:50.884Z,19.23
2023-02-17T19:09:17.930Z,19.22
2023-02-17T19:11:44.844Z,19.23
2023-02-17T19:14:12.779Z,19.21
2023-02-17T19:16:39.807Z,19.19
2023-02-17T19:19:06.727Z,19.19
2023-02-17T19:21:36.198Z,19.17
2023-02-17T19:24:03.507Z,19.19
2023-02-17T19:26:30.472Z,19.18
2023-02-17T19:28:57.572Z,19.16
2023-02-17T19:31:24.696Z,19.15
2023-02-17T19:33:51.808Z,19.14
2023-02-17T19:36:20.452Z,19.13
2023-02-17T19:38:47.983Z,19.15
2023-02-17T19:41:15.313Z,19.13
2023-02-17T19:43:43.185Z,19.12
2023-02-17T19:46:12.811Z,19.10
2023-02-17T19:48:39.966Z,19.11
2023-02-17T19:51:07.948Z,19.11
2023-02-17T19:53:35.740Z,19.10
2023-02-17T19:56:11.793Z,19.09
2023-02-17T19:58:39.310Z,19.07
2023-02-17T20:01:07.654Z,19.06
2023-02-17T20:03:34.687Z,19.07
2023-02-17T20:06:05.262Z,19.07
2023-02-17T20:08:32.539Z,19.07
2023-02-17T20:10:59.649Z,19.08
2023-02-17T20:13:28.684Z,19.05
2023-02-17T20:15:59.331Z,19.03
2023-02-17T20:18:26.306Z,19.04
2023-02-17T20:20:54.667Z,19.02
2023-02-17T20:23:22.532Z,19.03
2023-02-17T20:25:49.712Z,19.02
2023-02-17T20:28:16.752Z,19.03
2023-02-17T20:30:43.953Z,19.02
2023-02-17T20:33:11.574Z,19.03
2023-02-17T20:35:38.566Z,19.00
2023-02-17T20:38:05.731Z,19.01
2023-02-17T20:40:33.098Z,19.01
2023-02-17T20:43:00.484Z,19.00
2023-02-17T20:45:27.648Z,19.01
2023-02-17T20:47:54.736Z,19.01
2023-02-17T20:50:22.200Z,18.99
2023-02-17T20:52:49.237Z,19.00
2023-02-17T20:55:18.071Z,18.99
2023-02-17T20:57:45.075Z,18.99
2023-02-17T21:00:15.349Z,18.97
2023-02-17T21:02:42.376Z,18.99
2023-02-17T21:05:09.736Z,18.98
2023-02-17T21:07:36.933Z,19.00
2023-02-17T21:10:04.937Z,18.98
2023-02-17T21:12:31.936Z,18.96
2023-02-17T21:14:58.843Z,18.96
2023-02-17T21:17:25.784Z,18.96
2023-02-17T21:19:52.819Z,18.95
2023-02-17T21:22:19.812Z,18.92
2023-02-17T21:24:46.954Z,18.90
2023-02-17T21:27:14.039Z,18.91
2023-02-17T21:29:41.092Z,18.93
2023-02-17T21:32:08.229Z,18.93
2023-02-17T21:34:37.887Z,18.93
2023-02-17T21:37:05.551Z,18.91
2023-02-17T21:39:32.463Z,18.90
2023-02-17T21:41:59.485Z,18.90
2023-02-17T21:44:29.579Z,18.90
2023-02-17T21:46:56.747Z,18.91
2023-02-17T21:49:23.873Z,18.89
2023-02-17T21:51:50.888Z,18.88
2023-02-17T21:54:17.806Z,18.89
2023-02-17T21:56:44.768Z,18.87
2023-02-17T21:59:11.826Z,18.85
2023-02-17T22:01:38.796Z,18.88
2023-02-17T22:04:05.855Z,18.86
2023-02-17T22:06:35.972Z,18.84
2023-02-17T22:09:03.950Z,18.83
2023-02-17T22:11:32.521Z,18.81
2023-02-17T22:14:02.117Z,18.80
2023-02-17T22:16:31.337Z,18.81
2023-02-17T22:18:58.530Z,18.82
2023-02-17T22:21:25.455Z,18.83
2023-02-17T22:23:52.593Z,18.80
2023-02-17T22:26:21.060Z,18.81
2023-02-17T22:28:48.792Z,18.79
2023-02-17T22:31:17.186Z,18.77
2023-02-17T22:33:44.354Z,18.75
2023-02-17T22:36:13.011Z,18.79
2023-02-17T22:38:40.134Z,18.77
2023-02-17T22:41:08.388Z,18.78
2023-02-17T22:43:36.348Z,18.79
2023-02-17T22:46:03.497Z,18.79
2023-02-17T22:48:31.192Z,18.78
2023-02-17T22:50:58.333Z,18.75
2023-02-17T22:53:25.284Z,18.75
2023-02-17T22:55:53.732Z,18.74
2023-02-17T22:58:21.588Z,18.73
2023-02-17T23:00:49.221Z,18.71
2023-02-17T23:03:16.968Z,18.73
2023-02-17T23:05:44.216Z,18.69
2023-02-17T23:08:11.604Z,18.72
2023-02-17T23:10:40.362Z,18.69
2023-02-17T23:13:07.314Z,18.67
2023-02-17T23:15:37.451Z,18.68
2023-02-17T23:18:04.451Z,18.64
2023-02-17T23:20:31.419Z,18.64
2023-02-17T23:22:58.520Z,18.63
2023-02-17T23:25:25.531Z,18.64
2023-02-17T23:27:52.440Z,18.63
2023-02-17T23:30:20.865Z,18.64
2023-02-17T23:32:48.079Z,18.61
2023-02-17T23:35:16.940Z,18.60
2023-02-17T23:37:43.985Z,18.61
2023-02-17T23:40:11.361Z,18.63
2023-02-17T23:42:38.572Z,18.61
2023-02-17T23:45:06.054Z,18.60
2023-02-17T23:47:32.971Z,18.60
2023-02-17T23:49:59.972Z,18.59
2023-02-17T23:52:26.930Z,18.58
2023-02-17T23:54:53.908Z,18.62
2023-02-17T23:57:20.850Z,18.61
2023-02-17T23:59:47.741Z,18.60
